Time;durP1;ratioP1;P1;durP2;ratioP2;P2;SDS_P1;SDS_P2;PMS_P1;PMS_P2;Temp;Humidity;BMP_temperature;BMP_pressure;BME280_temperature;BME280_humidity;BME280_pressure;Samples;Min_cycle;Max_cycle;Signal;HPM_P1;HPM_P2
2022/03/24 00:02:24;;;;;;;30.45;25.85;;;;;;;4.10;47.96;95718.50;4998327;28;20192;-69
2022/03/24 00:04:51;;;;;;;25.15;22.42;;;;;;;4.08;47.77;95721.56;4998266;28;20205;-69
2022/03/24 00:07:18;;;;;;;23.90;20.13;;;;;;;4.13;47.22;95719.84;5014987;28;20195;-69
2022/03/24 00:09:44;;;;;;;22.92;19.90;;;;;;;4.14;47.31;95714.09;4998275;28;20237;-69
2022/03/24 00:12:14;;;;;;;20.38;18.27;;;;;;;4.12;47.49;95710.03;5015232;28;20569;-69
2022/03/24 00:14:41;;;;;;;24.25;21.70;;;;;;;4.09;48.52;95712.25;5015273;28;20521;-69
2022/03/24 00:17:08;;;;;;;25.00;22.35;;;;;;;4.08;49.02;95705.16;5014985;28;20274;-68
2022/03/24 00:19:36;;;;;;;18.77;16.83;;;;;;;4.06;47.72;95698.38;4999565;28;20219;-68
2022/03/24 00:22:03;;;;;;;18.67;15.75;;;;;;;4.01;47.34;95696.53;5002362;28;20538;-68
2022/03/24 00:24:30;;;;;;;29.92;24.92;;;;;;;3.98;49.51;95696.31;5019237;28;20187;-68
2022/03/24 00:26:58;;;;;;;35.30;28.27;;;;;;;3.77;49.17;95696.59;5002182;28;20234;-68
2022/03/24 00:29:26;;;;;;;36.95;28.67;;;;;;;3.54;49.45;95692.84;5019005;28;20245;-68
2022/03/24 00:31:53;;;;;;;40.85;31.77;;;;;;;3.42;49.72;95691.66;5001427;28;20587;-68
2022/03/24 00:34:19;;;;;;;40.45;30.75;;;;;;;3.44;49.71;95686.69;5002150;28;20203;-68
2022/03/24 00:36:46;;;;;;;33.05;27.15;;;;;;;3.45;49.39;95688.31;5001836;28;20214;-68
2022/03/24 00:39:13;;;;;;;33.88;27.30;;;;;;;3.50;49.22;95686.34;5001595;28;20222;-68
2022/03/24 00:41:40;;;;;;;33.17;27.38;;;;;;;3.57;49.30;95680.53;5018483;28;20195;-68
2022/03/24 00:44:07;;;;;;;39.17;29.77;;;;;;;3.44;50.08;95686.69;5018965;28;20199;-69
2022/03/24 00:46:35;;;;;;;46.85;32.22;;;;;;;3.38;50.37;95681.31;5001567;28;20211;-69
2022/03/24 00:49:02;;;;;;;42.80;33.85;;;;;;;3.25;50.71;95684.75;5018335;28;20207;-69
2022/03/24 00:51:29;;;;;;;39.38;29.02;;;;;;;3.20;50.77;95682.09;5018473;28;20187;-69
2022/03/24 00:53:56;;;;;;;38.92;28.42;;;;;;;3.26;50.56;95672.72;5001385;28;20195;-69
2022/03/24 00:56:23;;;;;;;28.20;24.63;;;;;;;3.25;50.32;95665.66;5000942;28;20199;-69
2022/03/24 00:58:50;;;;;;;31.98;24.13;;;;;;;3.23;50.97;95673.34;5001526;28;20222;-69
2022/03/24 01:01:17;;;;;;;28.77;22.85;;;;;;;3.24;50.25;95674.94;5001092;28;20206;-70
2022/03/24 01:03:45;;;;;;;29.63;24.25;;;;;;;3.24;50.09;95668.69;5018474;28;20197;-70
2022/03/24 01:06:16;;;;;;;26.63;21.42;;;;;;;3.31;50.39;95669.16;5018101;28;20214;-70
2022/03/24 01:08:44;;;;;;;28.67;23.25;;;;;;;3.36;50.12;95667.16;5018575;28;20198;-71
2022/03/24 01:11:11;;;;;;;26.88;22.60;;;;;;;3.43;50.23;95666.81;5000903;28;20218;-70
2022/03/24 01:13:38;;;;;;;25.65;21.58;;;;;;;3.46;50.10;95668.13;5017950;28;20197;-70
2022/03/24 01:16:07;;;;;;;24.92;21.35;;;;;;;3.50;50.09;95659.06;5000944;28;20207;-69
2022/03/24 01:18:34;;;;;;;31.02;22.88;;;;;;;3.46;50.29;95663.50;5001134;28;20223;-70
2022/03/24 01:21:03;;;;;;;27.95;22.67;;;;;;;3.45;50.53;95670.06;5000743;28;20605;-70
2022/03/24 01:23:30;;;;;;;25.75;21.65;;;;;;;3.40;50.50;95656.47;5000561;28;20199;-71
2022/03/24 01:25:58;;;;;;;23.63;21.15;;;;;;;3.41;49.95;95658.09;5018416;28;20231;-71
2022/03/24 01:28:25;;;;;;;28.90;22.17;;;;;;;3.46;50.81;95660.75;5000942;28;20214;-71
2022/03/24 01:30:52;;;;;;;30.35;24.35;;;;;;;3.40;50.85;95661.94;5016927;28;20191;-71
2022/03/24 01:33:19;;;;;;;31.23;24.45;;;;;;;3.32;51.04;95652.47;5017675;28;20184;-71
2022/03/24 01:35:45;;;;;;;27.45;22.42;;;;;;;3.19;51.45;95652.38;5000945;28;20206;-71
2022/03/24 01:38:16;;;;;;;29.50;24.52;;;;;;;3.02;51.97;95655.59;4997417;28;20242;-71
2022/03/24 01:40:43;;;;;;;40.10;30.80;;;;;;;2.85;51.97;95654.13;4998132;28;20232;-69
2022/03/24 01:43:11;;;;;;;42.85;35.03;;;;;;;2.83;51.89;95650.06;4997177;28;20196;-70
2022/03/24 01:45:38;;;;;;;38.25;33.30;;;;;;;2.68;52.69;95645.59;4998053;28;20287;-70
2022/03/24 01:48:06;;;;;;;30.55;27.30;;;;;;;2.60;52.50;95644.31;4997085;28;20200;-70
2022/03/24 01:50:34;;;;;;;29.25;26.00;;;;;;;2.70;52.36;95642.59;4998033;28;20190;-69
2022/03/24 01:53:00;;;;;;;27.88;24.77;;;;;;;2.70;51.67;95639.88;4997670;28;20192;-69
2022/03/24 01:55:29;;;;;;;30.88;25.55;;;;;;;2.68;52.54;95647.53;4997607;28;20187;-69
2022/03/24 01:57:56;;;;;;;29.42;25.25;;;;;;;2.72;52.40;95643.13;4997509;28;20628;-69
2022/03/24 02:00:23;;;;;;;27.63;24.38;;;;;;;2.69;52.38;95641.81;4997587;28;20194;-69
2022/03/24 02:02:50;;;;;;;26.02;23.00;;;;;;;2.64;52.74;95642.66;4997551;28;20184;-69
2022/03/24 02:05:17;;;;;;;25.00;22.20;;;;;;;2.56;52.81;95645.19;4996664;28;20200;-69
2022/03/24 02:07:43;;;;;;;25.10;22.45;;;;;;;2.58;52.33;95635.66;4996824;28;20226;-69
2022/03/24 02:10:11;;;;;;;26.50;23.25;;;;;;;2.68;51.87;95639.34;4997371;28;20242;-69
2022/03/24 02:12:39;;;;;;;25.67;22.40;;;;;;;2.68;52.37;95637.44;4997516;28;20196;-69
2022/03/24 02:15:07;;;;;;;23.95;21.00;;;;;;;2.70;52.42;95634.44;4996488;28;20204;-69
2022/03/24 02:17:34;;;;;;;20.73;18.40;;;;;;;2.72;51.91;95635.75;4996600;28;20206;-69
2022/03/24 02:20:01;;;;;;;19.70;17.25;;;;;;;2.75;51.78;95640.63;4996981;28;20204;-69
2022/03/24 02:22:30;;;;;;;18.35;16.52;;;;;;;2.84;51.15;95638.09;4996591;28;20262;-69
2022/03/24 02:24:57;;;;;;;19.05;16.45;;;;;;;2.85;51.48;95645.97;4997428;28;20219;-69
2022/03/24 02:27:24;;;;;;;26.58;21.83;;;;;;;2.81;53.11;95641.38;4997311;28;20184;-68
2022/03/24 02:29:51;;;;;;;27.73;22.70;;;;;;;2.70;52.51;95637.16;4996191;28;20546;-68
2022/03/24 02:32:19;;;;;;;22.55;19.55;;;;;;;2.71;52.04;95631.41;4997201;28;20196;-68
2022/03/24 02:34:51;;;;;;;22.70;18.30;;;;;;;2.78;51.44;95639.25;4997169;28;20180;-68
2022/03/24 02:37:21;;;;;;;24.92;22.33;;;;;;;2.64;52.65;95636.38;5000842;28;20541;-69
2022/03/24 02:39:50;;;;;;;28.17;22.77;;;;;;;2.49;52.62;95631.09;4999431;28;20226;-69
2022/03/24 02:42:18;;;;;;;25.42;22.63;;;;;;;2.42;52.83;95634.97;5015738;28;20188;-68
2022/03/24 02:44:46;;;;;;;25.25;22.55;;;;;;;2.50;53.19;95630.00;5016546;28;20192;-68
2022/03/24 02:47:14;;;;;;;24.08;21.42;;;;;;;2.55;52.65;95628.06;4999167;28;20195;-69
2022/03/24 02:49:41;;;;;;;24.42;21.65;;;;;;;2.47;52.48;95627.84;4999293;28;20215;-69
2022/03/24 02:52:09;;;;;;;20.58;18.25;;;;;;;2.33;52.49;95628.53;5016101;28;20206;-69
2022/03/24 02:54:37;;;;;;;21.65;17.88;;;;;;;2.24;52.88;95629.44;4999243;28;20242;-69
2022/03/24 02:57:06;;;;;;;18.98;16.90;;;;;;;2.12;53.38;95635.28;5016312;28;20207;-69
2022/03/24 02:59:33;;;;;;;18.02;16.23;;;;;;;2.07;53.57;95617.09;5016245;28;20211;-70
2022/03/24 03:02:01;;;;;;;17.27;15.48;;;;;;;2.08;53.99;95618.69;5016035;28;20201;-70
2022/03/24 03:04:28;;;;;;;20.17;16.83;;;;;;;2.15;53.86;95621.91;5016181;28;20202;-70
2022/03/24 03:06:56;;;;;;;18.95;16.95;;;;;;;2.20;53.69;95625.66;4998913;28;20607;-70
2022/03/24 03:09:23;;;;;;;22.35;15.98;;;;;;;2.25;53.16;95625.63;4998825;28;20194;-70
2022/03/24 03:11:51;;;;;;;18.27;16.48;;;;;;;2.32;53.86;95624.19;5015844;28;20183;-70
2022/03/24 03:14:20;;;;;;;19.02;16.90;;;;;;;2.29;53.32;95624.78;4998902;28;20242;-70
2022/03/24 03:16:47;;;;;;;22.13;17.95;;;;;;;2.27;53.38;95623.44;5016026;28;20199;-70
2022/03/24 03:19:17;;;;;;;19.90;16.88;;;;;;;2.32;53.15;95626.91;5015832;28;20203;-69
2022/03/24 03:21:44;;;;;;;19.88;17.80;;;;;;;2.36;53.20;95633.41;5015725;28;20195;-70
2022/03/24 03:24:12;;;;;;;19.15;17.25;;;;;;;2.40;52.90;95623.56;4998662;28;20195;-69
2022/03/24 03:26:39;;;;;;;18.90;17.00;;;;;;;2.45;53.42;95630.06;4998207;28;20266;-70
2022/03/24 03:29:06;;;;;;;21.42;17.55;;;;;;;2.36;53.28;95621.69;4998493;28;20210;-70
2022/03/24 03:31:35;;;;;;;23.55;18.55;;;;;;;2.20;53.78;95625.66;4998916;28;20190;-69
2022/03/24 03:34:02;;;;;;;21.30;18.10;;;;;;;2.06;54.11;95633.69;4998182;28;20209;-69
2022/03/24 03:36:30;;;;;;;21.00;18.50;;;;;;;1.99;53.88;95634.00;4998222;28;20654;-70
2022/03/24 03:38:58;;;;;;;21.17;18.52;;;;;;;2.02;54.17;95633.44;4998073;28;20713;-70
2022/03/24 03:41:26;;;;;;;19.98;17.90;;;;;;;2.05;54.13;95629.34;5015497;28;20273;-69
2022/03/24 03:43:53;;;;;;;21.67;17.83;;;;;;;2.16;53.72;95639.03;4998660;28;20195;-69
2022/03/24 03:46:20;;;;;;;20.85;18.13;;;;;;;2.08;53.96;95636.94;5015428;28;20260;-69
2022/03/24 03:48:48;;;;;;;22.95;20.35;;;;;;;1.98;54.38;95637.03;4998368;28;20206;-68
2022/03/24 03:51:15;;;;;;;22.13;19.77;;;;;;;1.86;54.55;95631.94;5015188;28;20198;-69
2022/03/24 03:53:42;;;;;;;23.85;20.98;;;;;;;1.86;54.85;95631.94;5015369;28;20199;-68
2022/03/24 03:56:10;;;;;;;24.25;20.35;;;;;;;1.90;54.84;95633.81;5015554;28;20210;-69
2022/03/24 03:58:37;;;;;;;23.02;19.17;;;;;;;1.91;54.35;95623.72;4998174;28;20217;-69
2022/03/24 04:01:04;;;;;;;22.10;19.77;;;;;;;1.80;54.64;95628.44;4998261;28;20210;-69
2022/03/24 04:03:33;;;;;;;23.55;19.55;;;;;;;1.79;55.04;95626.03;4998087;28;20623;-69
2022/03/24 04:06:04;;;;;;;21.80;19.48;;;;;;;1.78;54.73;95621.66;4998110;28;20265;-70
2022/03/24 04:08:31;;;;;;;22.13;19.48;;;;;;;1.72;55.12;95625.53;4998200;28;20203;-69
2022/03/24 04:10:58;;;;;;;22.42;20.02;;;;;;;1.75;54.65;95624.97;4998185;28;20224;-69
2022/03/24 04:13:25;;;;;;;22.65;19.67;;;;;;;1.76;54.63;95629.31;5014852;28;20593;-69
2022/03/24 04:15:53;;;;;;;25.52;19.55;;;;;;;1.76;54.80;95627.38;5015307;28;20194;-70
2022/03/24 04:18:19;;;;;;;25.48;19.75;;;;;;;1.77;54.74;95625.47;4998196;28;20636;-70
2022/03/24 04:20:46;;;;;;;25.40;21.02;;;;;;;1.66;55.28;95622.81;5015109;28;20219;-70
2022/03/24 04:23:14;;;;;;;25.60;19.63;;;;;;;1.65;54.88;95625.84;5015077;28;20195;-70
2022/03/24 04:25:41;;;;;;;21.88;18.48;;;;;;;1.65;54.80;95628.56;5014826;28;20201;-70
2022/03/24 04:28:08;;;;;;;23.08;17.77;;;;;;;1.65;54.79;95623.13;5014961;28;20176;-70
2022/03/24 04:30:36;;;;;;;19.88;17.83;;;;;;;1.71;54.61;95629.31;4997849;28;20187;-71
2022/03/24 04:33:04;;;;;;;22.35;18.00;;;;;;;1.69;54.96;95626.91;5015140;28;20198;-70
2022/03/24 04:35:31;;;;;;;21.85;17.73;;;;;;;1.72;54.67;95628.25;5014767;28;20520;-70
2022/03/24 04:37:58;;;;;;;21.55;17.83;;;;;;;1.74;55.10;95626.03;4997711;28;20330;-69
2022/03/24 04:40:26;;;;;;;23.83;17.92;;;;;;;1.74;54.53;95620.59;4997731;28;20211;-68
2022/03/24 04:42:54;;;;;;;21.70;17.88;;;;;;;1.73;54.33;95629.88;4997881;28;20199;-70
2022/03/24 04:45:23;;;;;;;24.42;17.88;;;;;;;1.81;54.73;95634.69;4997742;28;20233;-70
2022/03/24 04:47:51;;;;;;;20.75;17.83;;;;;;;1.83;54.49;95638.75;4998475;28;20209;-68
2022/03/24 04:50:18;;;;;;;24.85;19.83;;;;;;;1.86;54.38;95638.19;5015072;28;20205;-68
2022/03/24 04:52:45;;;;;;;28.90;19.92;;;;;;;1.73;54.54;95633.38;5014802;28;20285;-69
2022/03/24 04:55:14;;;;;;;22.85;18.48;;;;;;;1.64;55.07;95635.09;5014955;28;20195;-69
2022/03/24 04:57:42;;;;;;;24.70;19.98;;;;;;;1.63;55.31;95638.88;4997714;28;20257;-69
2022/03/24 05:00:10;;;;;;;27.95;20.25;;;;;;;1.56;55.11;95641.94;4997575;28;20518;-69
2022/03/24 05:02:37;;;;;;;28.47;20.33;;;;;;;1.53;55.16;95644.41;5014734;28;20504;-69
2022/03/24 05:05:06;;;;;;;24.63;20.20;;;;;;;1.56;55.21;95641.94;4997575;28;20904;-70
2022/03/24 05:07:32;;;;;;;23.08;18.92;;;;;;;1.64;54.77;95644.06;5017997;28;20206;-70
2022/03/24 05:09:59;;;;;;;28.67;19.67;;;;;;;1.80;54.89;95644.75;5001637;28;20199;-70
2022/03/24 05:12:26;;;;;;;24.45;18.65;;;;;;;1.86;55.38;95646.34;5001229;28;20199;-69
2022/03/24 05:14:54;;;;;;;25.75;20.00;;;;;;;1.90;54.86;95644.69;5018255;28;20183;-70
2022/03/24 05:17:21;;;;;;;27.17;20.60;;;;;;;1.92;54.96;95644.41;5001016;28;20253;-70
2022/03/24 05:19:48;;;;;;;26.27;20.27;;;;;;;1.91;54.77;95640.06;5001347;28;20211;-69
2022/03/24 05:22:16;;;;;;;25.48;20.02;;;;;;;1.94;55.44;95642.22;5001007;28;20203;-69
2022/03/24 05:24:43;;;;;;;29.65;22.15;;;;;;;1.99;55.69;95644.88;5001148;28;20199;-68
2022/03/24 05:27:10;;;;;;;29.10;23.45;;;;;;;2.07;54.77;95648.91;5018151;28;20191;-68
2022/03/24 05:29:37;;;;;;;40.72;31.13;;;;;;;2.12;54.68;95641.50;5018193;28;20201;-69
2022/03/24 05:32:07;;;;;;;46.13;37.13;;;;;;;2.20;54.49;95640.09;5017417;28;20442;-67
2022/03/24 05:34:34;;;;;;;43.92;31.35;;;;;;;2.33;54.25;95634.00;5018283;28;20194;-70
2022/03/24 05:37:01;;;;;;;43.13;33.17;;;;;;;2.46;54.31;95642.56;5017519;28;20214;-70
2022/03/24 05:39:28;;;;;;;36.45;24.23;;;;;;;2.53;54.22;95640.31;5017494;28;20203;-72
2022/03/24 05:41:54;;;;;;;31.20;22.60;;;;;;;2.67;54.13;95641.25;5017720;28;20191;-72
2022/03/24 05:44:21;;;;;;;32.85;22.25;;;;;;;2.78;53.48;95636.53;5000219;28;20199;-72
2022/03/24 05:46:49;;;;;;;36.20;24.17;;;;;;;2.88;52.68;95630.97;5017699;28;20191;-71
2022/03/24 05:49:19;;;;;;;34.38;26.55;;;;;;;2.99;52.07;95634.38;5017246;28;20278;-72
2022/03/24 05:51:46;;;;;;;50.17;33.00;;;;;;;3.08;52.19;95635.34;5000780;28;20195;-72
2022/03/24 05:54:15;;;;;;;51.42;33.25;;;;;;;3.20;52.06;95622.13;5017719;28;20198;-72
2022/03/24 05:56:42;;;;;;;47.40;31.27;;;;;;;3.30;51.93;95621.97;5017456;28;20183;-72
2022/03/24 05:59:08;;;;;;;44.08;29.30;;;;;;;3.37;51.46;95629.78;5017310;28;20198;-72
2022/03/24 06:01:35;;;;;;;41.75;28.00;;;;;;;3.46;51.31;95627.22;5000241;28;20554;-72
2022/03/24 06:04:03;;;;;;;43.65;28.65;;;;;;;3.55;50.96;95620.81;5000175;28;20203;-72
2022/03/24 06:06:34;;;;;;;38.67;27.50;;;;;;;3.68;50.75;95627.44;5000251;28;20199;-72
2022/03/24 06:09:03;;;;;;;41.75;33.30;;;;;;;3.77;50.60;95633.03;5017577;28;20278;-72
2022/03/24 06:11:30;;;;;;;42.47;32.78;;;;;;;3.87;50.45;95630.16;5017587;28;20195;-72
2022/03/24 06:13:57;;;;;;;36.55;31.05;;;;;;;3.99;50.49;95626.97;5017804;28;20257;-72
2022/03/24 06:16:24;;;;;;;34.10;30.38;;;;;;;4.08;50.23;95628.72;5000432;28;20199;-72
2022/03/24 06:18:51;;;;;;;34.75;30.45;;;;;;;4.19;49.71;95634.03;5017499;28;20192;-74
2022/03/24 06:21:18;;;;;;;32.25;28.75;;;;;;;4.27;49.36;95628.69;5000107;28;20226;-74
2022/03/24 06:23:46;;;;;;;30.42;26.85;;;;;;;4.41;48.91;95627.91;5000014;28;20199;-71
2022/03/24 06:26:13;;;;;;;28.35;24.50;;;;;;;4.45;49.07;95626.22;5016905;28;20196;-71
2022/03/24 06:28:41;;;;;;;29.70;26.50;;;;;;;4.43;49.39;95620.22;4999931;28;20195;-71
2022/03/24 06:31:08;;;;;;;29.50;24.08;;;;;;;4.48;49.43;95623.69;5017168;28;20259;-71
2022/03/24 06:33:36;;;;;;;28.23;21.45;;;;;;;4.60;49.05;95620.47;5000413;28;20257;-71
2022/03/24 06:36:03;;;;;;;25.70;20.88;;;;;;;4.68;48.51;95617.03;5016881;28;20187;-71
2022/03/24 06:38:30;;;;;;;27.67;22.92;;;;;;;4.72;48.69;95615.34;4999751;28;20237;-70
2022/03/24 06:40:58;;;;;;;31.02;23.15;;;;;;;4.80;48.68;95624.75;4999740;28;20215;-70
2022/03/24 06:43:25;;;;;;;27.05;22.85;;;;;;;4.96;48.53;95614.31;5016750;28;20203;-71
2022/03/24 06:45:52;;;;;;;30.50;23.70;;;;;;;5.07;48.12;95619.28;5016535;28;20592;-70
2022/03/24 06:48:19;;;;;;;28.73;23.40;;;;;;;5.21;48.26;95618.47;4999657;28;20195;-70
2022/03/24 06:50:46;;;;;;;32.22;25.58;;;;;;;5.34;48.00;95609.44;5016656;28;20277;-70
2022/03/24 06:53:13;;;;;;;35.88;32.17;;;;;;;5.46;47.87;95606.97;4999251;28;20198;-70
2022/03/24 06:55:40;;;;;;;44.20;39.47;;;;;;;5.56;47.56;95608.69;5000006;28;20191;-71
2022/03/24 06:58:08;;;;;;;42.00;35.00;;;;;;;5.67;46.96;95601.06;5016876;28;20249;-70
2022/03/24 07:00:35;;;;;;;37.53;30.08;;;;;;;5.78;47.70;95599.69;4999433;28;20291;-70
2022/03/24 07:03:02;;;;;;;35.70;28.05;;;;;;;5.89;47.00;95597.53;5016508;28;20202;-70
2022/03/24 07:05:29;;;;;;;33.35;25.92;;;;;;;6.05;47.13;95604.28;5016161;28;20241;-70
2022/03/24 07:07:56;;;;;;;29.38;24.05;;;;;;;6.22;47.14;95595.38;4999108;28;20514;-70
2022/03/24 07:10:23;;;;;;;27.90;23.08;;;;;;;6.33;46.26;95599.50;4999227;28;20205;-70
2022/03/24 07:12:50;;;;;;;29.77;24.88;;;;;;;6.45;46.75;95596.16;5016263;28;20210;-70
2022/03/24 07:15:18;;;;;;;28.33;24.27;;;;;;;6.57;46.29;95601.88;4998722;28;20195;-70
2022/03/24 07:17:45;;;;;;;29.15;24.15;;;;;;;6.72;45.33;95593.25;5016376;28;20198;-70
2022/03/24 07:20:13;;;;;;;24.98;22.48;;;;;;;6.87;45.60;95592.03;5016131;28;20317;-70
2022/03/24 07:22:39;;;;;;;28.27;22.45;;;;;;;7.02;45.36;95593.53;4999341;28;20239;-70
2022/03/24 07:25:08;;;;;;;29.10;26.17;;;;;;;7.15;44.87;95594.53;4999022;28;20203;-71
2022/03/24 07:27:35;;;;;;;34.90;29.17;;;;;;;7.27;44.67;95600.22;4999008;28;20199;-70
2022/03/24 07:30:02;;;;;;;36.10;30.08;;;;;;;7.37;44.38;95591.72;5015872;28;20198;-70
2022/03/24 07:32:31;;;;;;;35.45;30.55;;;;;;;7.46;44.37;95589.78;4999037;28;20257;-70
2022/03/24 07:34:58;;;;;;;31.33;26.58;;;;;;;7.57;44.57;95589.47;5016032;28;20176;-70
2022/03/24 07:37:24;;;;;;;30.50;26.98;;;;;;;7.63;44.09;95597.22;5015857;28;20222;-70
2022/03/24 07:39:51;;;;;;;28.05;24.77;;;;;;;7.74;43.86;95588.69;5015931;28;20214;-71
2022/03/24 07:42:18;;;;;;;25.77;21.45;;;;;;;7.86;43.60;95592.41;4998547;28;20203;-70
2022/03/24 07:44:45;;;;;;;27.90;21.58;;;;;;;8.05;43.43;95592.06;4999041;28;20202;-70
2022/03/24 07:47:12;;;;;;;22.58;19.08;;;;;;;8.22;42.71;95584.97;4998762;28;20249;-70
2022/03/24 07:49:40;;;;;;;27.95;21.13;;;;;;;8.38;44.26;95580.59;5016255;28;20257;-70
2022/03/24 07:52:12;;;;;;;30.75;21.90;;;;;;;8.54;43.48;95589.94;4998796;28;20202;-71
2022/03/24 07:55:00;;;;;;;25.58;20.85;;;;;;;8.67;43.15;95588.13;4998682;28;20235;-73
2022/03/24 07:57:30;;;;;;;28.00;22.40;;;;;;;8.76;43.19;95580.66;4998343;28;20615;-71
2022/03/24 07:59:57;;;;;;;25.15;21.30;;;;;;;8.88;42.49;95578.00;5016005;28;20183;-71
2022/03/24 08:02:24;;;;;;;27.00;19.55;;;;;;;8.99;43.33;95586.72;5015918;28;20183;-71
2022/03/24 08:04:53;;;;;;;21.88;17.73;;;;;;;9.12;42.89;95577.44;5015477;28;20584;-71
2022/03/24 08:07:21;;;;;;;19.98;13.73;;;;;;;9.21;41.04;95571.88;5015393;28;20202;-71
2022/03/24 08:09:49;;;;;;;17.95;12.82;;;;;;;9.38;42.72;95570.97;4998255;28;20199;-71
2022/03/24 08:12:15;;;;;;;16.23;12.35;;;;;;;9.55;40.62;95567.28;5015424;28;20184;-71
2022/03/24 08:14:42;;;;;;;15.88;12.05;;;;;;;9.71;40.02;95565.56;4998803;28;20195;-70
2022/03/24 08:17:09;;;;;;;18.98;12.57;;;;;;;9.89;40.18;95569.00;5015388;28;20193;-70
2022/03/24 08:19:36;;;;;;;15.20;11.43;;;;;;;10.03;40.00;95572.31;5015521;28;20183;-70
2022/03/24 08:22:04;;;;;;;13.90;11.73;;;;;;;10.18;39.47;95561.81;4998128;28;20214;-71
2022/03/24 08:24:31;;;;;;;15.82;10.60;;;;;;;10.39;39.91;95565.38;4998387;28;20199;-70
2022/03/24 08:26:58;;;;;;;11.85;9.45;;;;;;;10.52;38.28;95560.69;5015654;28;20245;-70
2022/03/24 08:29:25;;;;;;;13.30;9.48;;;;;;;10.68;38.84;95563.59;5015548;28;20179;-70
2022/03/24 08:31:51;;;;;;;10.38;9.38;;;;;;;10.86;38.29;95562.25;4998582;28;20194;-70
2022/03/24 08:34:18;;;;;;;12.38;8.52;;;;;;;10.99;37.84;95552.03;4998634;28;20547;-69
2022/03/24 08:36:45;;;;;;;11.57;8.48;;;;;;;11.05;36.09;95545.13;4998081;28;20203;-70
2022/03/24 08:39:13;;;;;;;10.95;8.13;;;;;;;11.08;37.05;95552.75;5015133;28;20234;-71
2022/03/24 08:41:40;;;;;;;11.23;8.85;;;;;;;11.31;37.28;95548.34;5017599;28;20217;-70
2022/03/24 08:44:07;;;;;;;9.27;7.72;;;;;;;11.49;36.87;95548.91;5019506;28;20204;-71
2022/03/24 08:46:33;;;;;;;9.95;8.95;;;;;;;11.67;36.42;95534.84;5019608;28;20191;-71
2022/03/24 08:49:00;;;;;;;10.55;8.35;;;;;;;11.81;34.46;95538.03;5002486;28;20195;-71
2022/03/24 08:51:28;;;;;;;12.38;6.90;;;;;;;11.96;32.01;95537.34;5002270;28;20584;-70
2022/03/24 08:53:55;;;;;;;7.75;6.47;;;;;;;12.03;31.04;95540.31;5002160;28;20262;-70
2022/03/24 08:56:23;;;;;;;10.23;7.00;;;;;;;12.07;31.43;95542.38;5002311;28;20637;-70
2022/03/24 08:58:51;;;;;;;10.45;7.20;;;;;;;12.16;31.43;95531.97;5019337;28;20191;-70
2022/03/24 09:01:19;;;;;;;10.63;6.72;;;;;;;12.33;32.01;95536.41;5002336;28;20214;-71
2022/03/24 09:03:48;;;;;;;8.52;7.60;;;;;;;12.55;31.76;95537.78;5002057;28;20565;-71
2022/03/24 09:06:15;;;;;;;10.38;7.50;;;;;;;12.76;31.02;95535.59;5018951;28;20234;-71
2022/03/24 09:08:42;;;;;;;9.25;6.68;;;;;;;12.90;29.55;95532.38;5019060;28;20194;-71
2022/03/24 09:11:09;;;;;;;8.77;6.78;;;;;;;12.96;30.34;95534.53;5018816;28;20195;-70
2022/03/24 09:13:38;;;;;;;8.65;6.25;;;;;;;13.07;30.28;95533.97;5018923;28;20187;-72
2022/03/24 09:16:05;;;;;;;8.25;7.07;;;;;;;13.15;29.31;95524.72;5018855;28;20192;-71
2022/03/24 09:18:32;;;;;;;7.97;7.18;;;;;;;13.32;30.42;95532.66;5001819;28;20209;-72
2022/03/24 09:20:59;;;;;;;8.82;7.40;;;;;;;13.48;29.36;95527.91;5018552;28;20217;-71
2022/03/24 09:23:27;;;;;;;8.38;6.88;;;;;;;13.58;29.20;95525.72;5001289;28;20199;-70
2022/03/24 09:25:54;;;;;;;8.98;6.68;;;;;;;13.71;29.88;95518.91;5018423;28;20222;-70
2022/03/24 09:28:21;;;;;;;9.50;6.40;;;;;;;13.83;30.29;95507.69;5018682;28;20254;-69
2022/03/24 09:30:50;;;;;;;8.68;7.00;;;;;;;14.00;28.79;95512.00;5001137;28;20275;-70
2022/03/24 09:33:17;;;;;;;8.43;7.40;;;;;;;14.15;29.14;95500.03;5018214;28;20184;-70
2022/03/24 09:35:44;;;;;;;7.40;6.50;;;;;;;14.31;28.52;95501.94;5018314;28;20195;-69
2022/03/24 09:38:11;;;;;;;10.48;7.10;;;;;;;14.44;28.35;95503.38;5017816;28;20239;-69
2022/03/24 09:40:39;;;;;;;8.23;6.80;;;;;;;14.59;26.81;95496.94;5000482;28;20252;-69
2022/03/24 09:43:06;;;;;;;9.85;6.95;;;;;;;14.62;26.01;95499.00;5018099;28;20523;-70
2022/03/24 09:45:33;;;;;;;7.75;6.38;;;;;;;14.68;26.35;95496.72;5018824;28;20187;-71
2022/03/24 09:48:02;;;;;;;7.20;6.50;;;;;;;14.81;27.09;95483.44;5018239;28;20187;-71
2022/03/24 09:50:30;;;;;;;7.60;6.75;;;;;;;14.89;25.55;95474.91;5000817;28;20214;-71
2022/03/24 09:52:59;;;;;;;9.25;6.50;;;;;;;15.04;26.63;95480.69;5000298;28;20195;-71
2022/03/24 09:55:26;;;;;;;9.05;6.47;;;;;;;15.19;25.45;95470.59;5017934;28;20187;-71
2022/03/24 09:57:53;;;;;;;7.50;6.70;;;;;;;15.29;26.05;95479.13;5000910;28;20253;-70
2022/03/24 10:00:20;;;;;;;8.27;6.93;;;;;;;15.48;25.42;95477.41;5017620;28;20188;-71
2022/03/24 10:03:09;;;;;;;9.43;6.88;;;;;;;15.56;24.32;95466.00;5017431;28;20210;-71
2022/03/24 10:05:36;;;;;;;8.52;7.22;;;;;;;15.69;24.11;95474.97;5017700;28;20187;-71
2022/03/24 10:08:07;;;;;;;8.88;6.97;;;;;;;15.77;23.75;95462.75;5018238;28;20195;-71
2022/03/24 10:10:36;;;;;;;7.22;6.43;;;;;;;15.79;23.85;95456.81;5001071;28;20199;-70
2022/03/24 10:13:04;;;;;;;6.60;6.00;;;;;;;15.89;23.02;95459.72;5000721;28;20227;-71
2022/03/24 10:15:31;;;;;;;6.60;6.00;;;;;;;15.98;23.38;95447.53;5017733;28;20187;-68
2022/03/24 10:18:00;;;;;;;6.97;6.28;;;;;;;16.12;23.53;95458.81;5017801;28;20192;-70
2022/03/24 10:20:33;;;;;;;6.55;5.93;;;;;;;16.05;22.75;95447.59;5000583;28;20198;-70
2022/03/24 10:23:02;;;;;;;7.85;6.50;;;;;;;16.22;23.73;95446.22;5017844;28;20195;-70
2022/03/24 10:25:31;;;;;;;8.30;6.63;;;;;;;16.41;23.33;95439.66;5000048;28;20195;-70
2022/03/24 10:28:06;;;;;;;9.15;6.80;;;;;;;16.68;22.53;95443.13;5000744;28;20207;-69
2022/03/24 10:30:52;;;;;;;7.00;6.30;;;;;;;16.77;23.57;95427.69;5016959;28;20187;-70
2022/03/24 10:33:30;;;;;;;10.05;6.68;;;;;;;16.95;23.34;95427.06;5000102;28;20207;-70
2022/03/24 10:36:10;;;;;;;7.35;6.35;;;;;;;17.19;22.89;95420.91;4999844;28;20195;-70
2022/03/24 10:38:39;;;;;;;7.25;6.03;;;;;;;17.38;23.45;95417.03;4999500;28;20539;-71
2022/03/24 10:41:14;;;;;;;9.57;7.00;;;;;;;17.48;23.27;95409.94;4999675;28;20219;-69
2022/03/24 10:43:41;;;;;;;8.60;6.20;;;;;;;17.62;22.09;95410.00;5017239;28;20195;-69
2022/03/24 10:46:13;;;;;;;7.90;5.78;;;;;;;17.63;20.81;95408.03;5016961;28;20190;-69
2022/03/24 10:48:40;;;;;;;9.07;6.20;;;;;;;17.73;22.44;95402.50;4999677;28;20210;-70
2022/03/24 10:51:09;;;;;;;6.80;6.10;;;;;;;17.84;21.99;95394.22;5017014;28;20180;-70
2022/03/24 10:53:40;;;;;;;7.25;5.97;;;;;;;17.97;21.42;95403.03;5000099;28;20202;-70
2022/03/24 10:56:09;;;;;;;7.22;5.88;;;;;;;18.03;22.17;95391.09;5017397;28;20260;-69
2022/03/24 10:58:39;;;;;;;10.40;7.65;;;;;;;18.08;22.28;95395.47;5017163;28;20187;-69
2022/03/24 11:01:08;;;;;;;11.75;10.10;;;;;;;18.01;21.56;95387.09;4999320;28;20273;-70
2022/03/24 11:03:37;;;;;;;13.40;10.82;;;;;;;17.95;22.13;95381.09;5015573;28;20631;-69
2022/03/24 11:06:12;;;;;;;13.80;10.73;;;;;;;18.19;21.46;95387.97;4999303;28;20195;-69
2022/03/24 11:08:39;;;;;;;11.98;9.68;;;;;;;18.38;22.80;95386.03;5016256;28;20194;-70
2022/03/24 11:11:08;;;;;;;8.30;7.25;;;;;;;18.58;21.70;95381.66;4999311;28;20195;-70
2022/03/24 11:13:47;;;;;;;6.82;6.20;;;;;;;18.82;21.52;95382.91;4999122;28;20198;-70
2022/03/24 11:16:14;;;;;;;10.98;6.95;;;;;;;18.97;21.73;95369.72;4999740;28;20199;-69
2022/03/24 11:18:42;;;;;;;10.00;6.63;;;;;;;18.82;21.24;95371.72;5016265;28;20274;-70
2022/03/24 11:21:15;;;;;;;7.55;6.85;;;;;;;18.90;20.69;95375.31;5016179;28;20269;-70
2022/03/24 11:23:41;;;;;;;7.57;6.20;;;;;;;18.98;20.00;95358.13;5015915;28;20210;-70
2022/03/24 11:26:10;;;;;;;8.45;6.75;;;;;;;18.95;19.77;95358.97;5016126;28;20183;-69
2022/03/24 11:28:38;;;;;;;9.77;7.22;;;;;;;18.79;20.43;95358.56;4999179;28;20536;-70
2022/03/24 11:31:07;;;;;;;7.03;5.63;;;;;;;19.01;19.65;95356.53;4998831;28;20195;-70